Ana Sayfa
METAR-TAF:

METAR-TAF

Havaalanları :

Gran Canaria Havalimanı

Gran Canaria, İspanya

Enlem: 27-56N, Boylam: 015-23W, yükseklik: 23 m

Güncel hava durumu gözlemi

Rapor saat 00:30 UTC de 27 dakika önce yapıldı.
Rüzgar kuzeydan 15 kt
Sıcaklık 23°C
Nem 73%
Basınç 1016 hPa
Görüş mesafesi 10 km veya daha fazla
1500 ft yükseklikte az bulutlu
2000 ft yükseklikte parçalı çok bulutlu

METAR: GCLP 180030Z 36015KT 9999 FEW015 BKN020 23/18 Q1016 NOSIG

Saat: 01:57 (00:57 UTC)

Tahmin

Rapor saat 20:00 UTC de 4 saat ve 57 dakika önce yapıldı.
Ayın 17'si saat 21 UTC'den ayın 18'si saat 21 UTC'ye kadar geçerli Tahmin
Rüzgar kuzeydan 16 kt
Görüş mesafesi 10 km veya daha fazla
2000 ft yükseklikte az bulutlu

TAF: GCLP 172000Z 1721/1821 36016KT 9999 FEW020 TX25/1814Z TN21/1805Z

4.000'den fazla havaalanı için hava durumu gözlemleri ve tahminleri (METAR ve TAF raporları).

Kullanılabilir istasyonlar harita üzerinde sarı ve kırmızı noktalarla gösterilir.

İstasyonun adını görmek için fareyi noktanın üzerinde gezdirin.

Sonrasında hava gözlem ve tahminlerini görmek için tıklayın.

Haritayı değiştirmek için: yaklaştırmak için siyah artı işaretli yeşil düğmeye ve uzaklaştırmak için de eksi işaretli düğmeye hızla tıklayın; bitişik haritalar için yeşil okları kullanın.


METAR-TAF: